sensor_id;sensor_type;location;lat;lon;timestamp;P1;durP1;ratioP1;P2;durP2;ratioP2
62580;SDS011;48640;48.770;9.148;2022-08-23T00:02:01;3.33;;;1.92;;
62580;SDS011;48640;48.770;9.148;2022-08-23T00:04:32;5.10;;;1.98;;
62580;SDS011;48640;48.770;9.148;2022-08-23T00:07:00;4.57;;;2.42;;
62580;SDS011;48640;48.770;9.148;2022-08-23T00:09:30;3.80;;;2.35;;
62580;SDS011;48640;48.770;9.148;2022-08-23T00:12:02;4.57;;;2.55;;
62580;SDS011;48640;48.770;9.148;2022-08-23T00:14:33;4.10;;;2.03;;
62580;SDS011;48640;48.770;9.148;2022-08-23T00:17:03;5.82;;;2.17;;
62580;SDS011;48640;48.770;9.148;2022-08-23T00:19:30;3.90;;;2.10;;
62580;SDS011;48640;48.770;9.148;2022-08-23T00:21:57;5.82;;;2.35;;
62580;SDS011;48640;48.770;9.148;2022-08-23T00:24:24;5.63;;;1.95;;
62580;SDS011;48640;48.770;9.148;2022-08-23T00:26:54;4.50;;;2.50;;
62580;SDS011;48640;48.770;9.148;2022-08-23T00:29:24;5.82;;;2.30;;
62580;SDS011;48640;48.770;9.148;2022-08-23T00:31:53;3.70;;;2.20;;
62580;SDS011;48640;48.770;9.148;2022-08-23T00:34:20;4.45;;;2.50;;
62580;SDS011;48640;48.770;9.148;2022-08-23T00:36:47;5.35;;;2.15;;
62580;SDS011;48640;48.770;9.148;2022-08-23T00:39:14;3.22;;;2.08;;
62580;SDS011;48640;48.770;9.148;2022-08-23T00:41:42;4.88;;;2.15;;
62580;SDS011;48640;48.770;9.148;2022-08-23T00:44:13;4.93;;;2.45;;
62580;SDS011;48640;48.770;9.148;2022-08-23T00:47:01;4.40;;;2.20;;
62580;SDS011;48640;48.770;9.148;2022-08-23T00:49:48;6.32;;;2.85;;
62580;SDS011;48640;48.770;9.148;2022-08-23T00:52:22;4.35;;;1.92;;
62580;SDS011;48640;48.770;9.148;2022-08-23T00:54:53;5.63;;;2.33;;
62580;SDS011;48640;48.770;9.148;2022-08-23T00:57:21;4.07;;;2.03;;
62580;SDS011;48640;48.770;9.148;2022-08-23T00:59:50;5.13;;;2.42;;
62580;SDS011;48640;48.770;9.148;2022-08-23T01:02:17;7.10;;;2.97;;
62580;SDS011;48640;48.770;9.148;2022-08-23T01:04:47;4.60;;;2.13;;
62580;SDS011;48640;48.770;9.148;2022-08-23T01:07:21;4.20;;;2.15;;
62580;SDS011;48640;48.770;9.148;2022-08-23T01:09:55;5.60;;;2.05;;
62580;SDS011;48640;48.770;9.148;2022-08-23T01:12:27;5.68;;;2.05;;
62580;SDS011;48640;48.770;9.148;2022-08-23T01:15:03;7.97;;;2.80;;
62580;SDS011;48640;48.770;9.148;2022-08-23T01:17:34;4.50;;;2.15;;
62580;SDS011;48640;48.770;9.148;2022-08-23T01:20:07;4.13;;;2.22;;
62580;SDS011;48640;48.770;9.148;2022-08-23T01:22:42;5.18;;;2.65;;
62580;SDS011;48640;48.770;9.148;2022-08-23T01:25:18;4.10;;;2.15;;
62580;SDS011;48640;48.770;9.148;2022-08-23T01:27:46;4.72;;;2.10;;
62580;SDS011;48640;48.770;9.148;2022-08-23T01:30:15;3.70;;;1.85;;
62580;SDS011;48640;48.770;9.148;2022-08-23T01:32:50;6.13;;;2.58;;
62580;SDS011;48640;48.770;9.148;2022-08-23T01:35:19;4.57;;;2.00;;
62580;SDS011;48640;48.770;9.148;2022-08-23T01:37:49;3.00;;;1.75;;
62580;SDS011;48640;48.770;9.148;2022-08-23T01:40:17;4.78;;;2.10;;
62580;SDS011;48640;48.770;9.148;2022-08-23T01:42:44;2.47;;;1.50;;
62580;SDS011;48640;48.770;9.148;2022-08-23T01:45:13;4.43;;;2.05;;
62580;SDS011;48640;48.770;9.148;2022-08-23T01:47:41;3.35;;;2.20;;
62580;SDS011;48640;48.770;9.148;2022-08-23T01:50:08;3.75;;;2.10;;
62580;SDS011;48640;48.770;9.148;2022-08-23T01:52:36;4.13;;;2.15;;
62580;SDS011;48640;48.770;9.148;2022-08-23T01:55:04;3.55;;;2.22;;
62580;SDS011;48640;48.770;9.148;2022-08-23T01:57:33;5.28;;;2.20;;
62580;SDS011;48640;48.770;9.148;2022-08-23T02:00:01;3.55;;;1.90;;
62580;SDS011;48640;48.770;9.148;2022-08-23T02:02:29;4.38;;;2.15;;
62580;SDS011;48640;48.770;9.148;2022-08-23T02:04:56;3.67;;;1.90;;
62580;SDS011;48640;48.770;9.148;2022-08-23T02:07:24;3.80;;;2.15;;
62580;SDS011;48640;48.770;9.148;2022-08-23T02:09:52;3.95;;;2.25;;
62580;SDS011;48640;48.770;9.148;2022-08-23T02:12:19;4.00;;;2.20;;
62580;SDS011;48640;48.770;9.148;2022-08-23T02:14:47;3.20;;;2.00;;
62580;SDS011;48640;48.770;9.148;2022-08-23T02:17:14;4.13;;;1.90;;
62580;SDS011;48640;48.770;9.148;2022-08-23T02:19:42;4.72;;;2.40;;
62580;SDS011;48640;48.770;9.148;2022-08-23T02:22:10;6.03;;;2.53;;
62580;SDS011;48640;48.770;9.148;2022-08-23T02:24:38;4.40;;;2.25;;
62580;SDS011;48640;48.770;9.148;2022-08-23T02:27:06;6.55;;;2.10;;
62580;SDS011;48640;48.770;9.148;2022-08-23T02:29:33;4.03;;;2.50;;
62580;SDS011;48640;48.770;9.148;2022-08-23T02:32:02;4.80;;;2.40;;
62580;SDS011;48640;48.770;9.148;2022-08-23T02:34:29;3.42;;;2.38;;
62580;SDS011;48640;48.770;9.148;2022-08-23T02:36:57;3.83;;;2.10;;
62580;SDS011;48640;48.770;9.148;2022-08-23T02:39:24;6.20;;;2.20;;
62580;SDS011;48640;48.770;9.148;2022-08-23T02:41:51;4.63;;;2.20;;
62580;SDS011;48640;48.770;9.148;2022-08-23T02:44:19;5.55;;;2.25;;
62580;SDS011;48640;48.770;9.148;2022-08-23T02:46:46;5.68;;;2.17;;
62580;SDS011;48640;48.770;9.148;2022-08-23T02:49:14;4.05;;;2.35;;
62580;SDS011;48640;48.770;9.148;2022-08-23T02:51:42;4.15;;;2.45;;
62580;SDS011;48640;48.770;9.148;2022-08-23T02:54:09;6.35;;;2.80;;
62580;SDS011;48640;48.770;9.148;2022-08-23T02:56:36;3.90;;;2.20;;
62580;SDS011;48640;48.770;9.148;2022-08-23T02:59:03;4.70;;;2.58;;
62580;SDS011;48640;48.770;9.148;2022-08-23T03:01:31;4.20;;;2.35;;
62580;SDS011;48640;48.770;9.148;2022-08-23T03:06:29;4.63;;;2.45;;
62580;SDS011;48640;48.770;9.148;2022-08-23T03:08:56;4.35;;;2.40;;
62580;SDS011;48640;48.770;9.148;2022-08-23T03:11:23;4.70;;;2.22;;
62580;SDS011;48640;48.770;9.148;2022-08-23T03:13:51;4.63;;;2.50;;
62580;SDS011;48640;48.770;9.148;2022-08-23T03:16:20;5.78;;;2.78;;
62580;SDS011;48640;48.770;9.148;2022-08-23T03:18:48;5.05;;;2.70;;
62580;SDS011;48640;48.770;9.148;2022-08-23T03:21:18;3.80;;;2.30;;
62580;SDS011;48640;48.770;9.148;2022-08-23T03:23:47;3.60;;;2.25;;
62580;SDS011;48640;48.770;9.148;2022-08-23T03:26:14;4.70;;;2.20;;
62580;SDS011;48640;48.770;9.148;2022-08-23T03:28:42;4.30;;;2.00;;
62580;SDS011;48640;48.770;9.148;2022-08-23T03:31:10;3.92;;;2.20;;
62580;SDS011;48640;48.770;9.148;2022-08-23T03:33:37;5.63;;;2.38;;
62580;SDS011;48640;48.770;9.148;2022-08-23T03:36:06;4.78;;;2.10;;
62580;SDS011;48640;48.770;9.148;2022-08-23T03:38:34;4.13;;;2.05;;
62580;SDS011;48640;48.770;9.148;2022-08-23T03:41:03;3.63;;;2.08;;
62580;SDS011;48640;48.770;9.148;2022-08-23T03:43:30;4.35;;;2.42;;
62580;SDS011;48640;48.770;9.148;2022-08-23T03:45:57;4.70;;;2.40;;
62580;SDS011;48640;48.770;9.148;2022-08-23T03:48:24;5.05;;;2.13;;
62580;SDS011;48640;48.770;9.148;2022-08-23T03:50:51;5.40;;;2.72;;
62580;SDS011;48640;48.770;9.148;2022-08-23T03:53:18;4.55;;;2.65;;
62580;SDS011;48640;48.770;9.148;2022-08-23T03:55:48;4.88;;;2.55;;
62580;SDS011;48640;48.770;9.148;2022-08-23T03:58:17;5.22;;;2.67;;
62580;SDS011;48640;48.770;9.148;2022-08-23T04:00:45;3.88;;;2.33;;
62580;SDS011;48640;48.770;9.148;2022-08-23T04:03:12;3.25;;;1.75;;
62580;SDS011;48640;48.770;9.148;2022-08-23T04:05:39;4.45;;;2.38;;
62580;SDS011;48640;48.770;9.148;2022-08-23T04:08:06;4.03;;;2.40;;
62580;SDS011;48640;48.770;9.148;2022-08-23T04:10:34;5.90;;;2.83;;
62580;SDS011;48640;48.770;9.148;2022-08-23T04:13:03;5.70;;;2.47;;
62580;SDS011;48640;48.770;9.148;2022-08-23T04:15:32;6.13;;;2.60;;
62580;SDS011;48640;48.770;9.148;2022-08-23T04:17:58;4.90;;;3.17;;
62580;SDS011;48640;48.770;9.148;2022-08-23T04:20:25;5.45;;;2.83;;
62580;SDS011;48640;48.770;9.148;2022-08-23T04:22:54;4.07;;;2.47;;
62580;SDS011;48640;48.770;9.148;2022-08-23T04:25:21;4.97;;;3.05;;
62580;SDS011;48640;48.770;9.148;2022-08-23T04:27:48;5.70;;;2.55;;
62580;SDS011;48640;48.770;9.148;2022-08-23T04:30:15;5.70;;;2.55;;
62580;SDS011;48640;48.770;9.148;2022-08-23T04:32:45;4.25;;;2.15;;
62580;SDS011;48640;48.770;9.148;2022-08-23T04:35:12;3.78;;;2.20;;
62580;SDS011;48640;48.770;9.148;2022-08-23T04:37:39;3.75;;;2.55;;
62580;SDS011;48640;48.770;9.148;2022-08-23T04:40:07;5.68;;;2.97;;
62580;SDS011;48640;48.770;9.148;2022-08-23T04:42:52;5.93;;;3.28;;
62580;SDS011;48640;48.770;9.148;2022-08-23T04:45:19;4.05;;;2.83;;
62580;SDS011;48640;48.770;9.148;2022-08-23T04:47:47;4.40;;;2.88;;
62580;SDS011;48640;48.770;9.148;2022-08-23T04:50:14;4.88;;;2.58;;
62580;SDS011;48640;48.770;9.148;2022-08-23T04:52:41;5.22;;;3.30;;
62580;SDS011;48640;48.770;9.148;2022-08-23T04:55:08;7.07;;;3.22;;
62580;SDS011;48640;48.770;9.148;2022-08-23T04:57:36;6.20;;;3.30;;
62580;SDS011;48640;48.770;9.148;2022-08-23T05:00:04;6.35;;;3.30;;
62580;SDS011;48640;48.770;9.148;2022-08-23T05:02:32;5.35;;;2.83;;
62580;SDS011;48640;48.770;9.148;2022-08-23T05:05:00;8.77;;;2.70;;
62580;SDS011;48640;48.770;9.148;2022-08-23T05:07:27;7.90;;;3.63;;
62580;SDS011;48640;48.770;9.148;2022-08-23T05:09:55;6.57;;;2.78;;
62580;SDS011;48640;48.770;9.148;2022-08-23T05:12:22;4.35;;;2.78;;
62580;SDS011;48640;48.770;9.148;2022-08-23T05:14:49;4.30;;;2.67;;
62580;SDS011;48640;48.770;9.148;2022-08-23T05:17:15;4.38;;;2.72;;
62580;SDS011;48640;48.770;9.148;2022-08-23T05:19:43;5.90;;;2.80;;
62580;SDS011;48640;48.770;9.148;2022-08-23T05:22:11;4.75;;;2.70;;
62580;SDS011;48640;48.770;9.148;2022-08-23T05:24:37;5.72;;;3.00;;
62580;SDS011;48640;48.770;9.148;2022-08-23T05:27:04;4.78;;;3.17;;
62580;SDS011;48640;48.770;9.148;2022-08-23T05:29:31;5.50;;;3.35;;
62580;SDS011;48640;48.770;9.148;2022-08-23T05:31:58;5.55;;;2.38;;
62580;SDS011;48640;48.770;9.148;2022-08-23T05:34:25;6.30;;;2.70;;
62580;SDS011;48640;48.770;9.148;2022-08-23T05:36:52;5.70;;;2.90;;
62580;SDS011;48640;48.770;9.148;2022-08-23T05:39:20;5.43;;;2.33;;
62580;SDS011;48640;48.770;9.148;2022-08-23T05:41:47;5.50;;;2.90;;
62580;SDS011;48640;48.770;9.148;2022-08-23T05:44:14;5.97;;;2.60;;
62580;SDS011;48640;48.770;9.148;2022-08-23T05:46:41;5.18;;;2.78;;
62580;SDS011;48640;48.770;9.148;2022-08-23T05:49:09;4.68;;;2.50;;
62580;SDS011;48640;48.770;9.148;2022-08-23T05:51:36;6.47;;;2.90;;
62580;SDS011;48640;48.770;9.148;2022-08-23T05:54:03;5.03;;;2.90;;
62580;SDS011;48640;48.770;9.148;2022-08-23T05:56:34;3.60;;;2.53;;
62580;SDS011;48640;48.770;9.148;2022-08-23T05:59:03;5.65;;;2.47;;
62580;SDS011;48640;48.770;9.148;2022-08-23T06:01:32;7.22;;;2.75;;
62580;SDS011;48640;48.770;9.148;2022-08-23T06:04:00;6.18;;;2.78;;
62580;SDS011;48640;48.770;9.148;2022-08-23T06:06:28;11.02;;;3.35;;
62580;SDS011;48640;48.770;9.148;2022-08-23T06:08:55;4.00;;;2.60;;
62580;SDS011;48640;48.770;9.148;2022-08-23T06:11:23;4.57;;;2.17;;
62580;SDS011;48640;48.770;9.148;2022-08-23T06:13:54;4.68;;;2.92;;
62580;SDS011;48640;48.770;9.148;2022-08-23T06:16:22;8.18;;;3.30;;
62580;SDS011;48640;48.770;9.148;2022-08-23T06:18:50;3.77;;;2.43;;
62580;SDS011;48640;48.770;9.148;2022-08-23T06:21:19;4.20;;;2.10;;
62580;SDS011;48640;48.770;9.148;2022-08-23T06:23:47;5.47;;;2.47;;
62580;SDS011;48640;48.770;9.148;2022-08-23T06:26:16;4.22;;;2.42;;
62580;SDS011;48640;48.770;9.148;2022-08-23T06:28:44;4.60;;;2.50;;
62580;SDS011;48640;48.770;9.148;2022-08-23T06:31:13;4.65;;;2.40;;
62580;SDS011;48640;48.770;9.148;2022-08-23T06:33:40;6.22;;;1.90;;
62580;SDS011;48640;48.770;9.148;2022-08-23T06:36:08;4.72;;;2.35;;
62580;SDS011;48640;48.770;9.148;2022-08-23T06:38:37;3.25;;;1.95;;
62580;SDS011;48640;48.770;9.148;2022-08-23T06:41:05;5.30;;;2.80;;
62580;SDS011;48640;48.770;9.148;2022-08-23T06:43:34;4.75;;;2.63;;
62580;SDS011;48640;48.770;9.148;2022-08-23T06:46:06;4.65;;;2.40;;
62580;SDS011;48640;48.770;9.148;2022-08-23T06:48:35;4.85;;;1.95;;
62580;SDS011;48640;48.770;9.148;2022-08-23T06:51:07;4.67;;;2.60;;
62580;SDS011;48640;48.770;9.148;2022-08-23T06:53:35;5.25;;;2.28;;
62580;SDS011;48640;48.770;9.148;2022-08-23T06:56:02;6.70;;;2.80;;
62580;SDS011;48640;48.770;9.148;2022-08-23T06:58:29;5.88;;;2.40;;
62580;SDS011;48640;48.770;9.148;2022-08-23T07:01:06;4.70;;;2.42;;
62580;SDS011;48640;48.770;9.148;2022-08-23T07:03:36;6.70;;;2.83;;
62580;SDS011;48640;48.770;9.148;2022-08-23T07:06:03;6.15;;;2.47;;
62580;SDS011;48640;48.770;9.148;2022-08-23T07:08:30;4.60;;;2.50;;
62580;SDS011;48640;48.770;9.148;2022-08-23T07:10:56;4.47;;;2.60;;
62580;SDS011;48640;48.770;9.148;2022-08-23T07:13:24;8.55;;;2.78;;
62580;SDS011;48640;48.770;9.148;2022-08-23T07:15:55;5.82;;;2.60;;
62580;SDS011;48640;48.770;9.148;2022-08-23T07:18:22;7.30;;;2.40;;
62580;SDS011;48640;48.770;9.148;2022-08-23T07:20:54;7.28;;;2.70;;
62580;SDS011;48640;48.770;9.148;2022-08-23T07:23:22;5.88;;;2.50;;
62580;SDS011;48640;48.770;9.148;2022-08-23T07:25:49;5.45;;;2.90;;
62580;SDS011;48640;48.770;9.148;2022-08-23T07:28:16;5.75;;;2.60;;
62580;SDS011;48640;48.770;9.148;2022-08-23T07:30:43;6.65;;;2.58;;
62580;SDS011;48640;48.770;9.148;2022-08-23T07:33:10;9.60;;;2.88;;
62580;SDS011;48640;48.770;9.148;2022-08-23T07:35:44;5.75;;;2.92;;
62580;SDS011;48640;48.770;9.148;2022-08-23T07:38:14;6.88;;;2.97;;
62580;SDS011;48640;48.770;9.148;2022-08-23T07:40:42;5.10;;;2.47;;
62580;SDS011;48640;48.770;9.148;2022-08-23T07:43:10;6.32;;;2.92;;
62580;SDS011;48640;48.770;9.148;2022-08-23T07:45:37;7.70;;;2.72;;
62580;SDS011;48640;48.770;9.148;2022-08-23T07:48:07;3.72;;;2.08;;
62580;SDS011;48640;48.770;9.148;2022-08-23T07:50:34;5.20;;;2.40;;
62580;SDS011;48640;48.770;9.148;2022-08-23T07:53:01;7.90;;;2.55;;
62580;SDS011;48640;48.770;9.148;2022-08-23T07:55:29;6.15;;;1.92;;
62580;SDS011;48640;48.770;9.148;2022-08-23T07:57:56;4.65;;;2.72;;
62580;SDS011;48640;48.770;9.148;2022-08-23T08:00:23;5.82;;;2.75;;
62580;SDS011;48640;48.770;9.148;2022-08-23T08:02:49;5.22;;;2.58;;
62580;SDS011;48640;48.770;9.148;2022-08-23T08:05:16;5.78;;;2.40;;
62580;SDS011;48640;48.770;9.148;2022-08-23T08:07:43;4.53;;;2.30;;
62580;SDS011;48640;48.770;9.148;2022-08-23T08:10:10;6.57;;;2.88;;
62580;SDS011;48640;48.770;9.148;2022-08-23T08:12:38;5.25;;;2.17;;
62580;SDS011;48640;48.770;9.148;2022-08-23T08:15:05;6.33;;;2.47;;
62580;SDS011;48640;48.770;9.148;2022-08-23T08:17:33;8.88;;;2.75;;
62580;SDS011;48640;48.770;9.148;2022-08-23T08:20:00;5.32;;;2.03;;
62580;SDS011;48640;48.770;9.148;2022-08-23T08:22:27;4.25;;;2.13;;
62580;SDS011;48640;48.770;9.148;2022-08-23T08:24:53;7.05;;;2.78;;
62580;SDS011;48640;48.770;9.148;2022-08-23T08:27:20;9.30;;;2.30;;
62580;SDS011;48640;48.770;9.148;2022-08-23T08:29:48;6.47;;;2.70;;
62580;SDS011;48640;48.770;9.148;2022-08-23T08:32:15;6.80;;;2.42;;
62580;SDS011;48640;48.770;9.148;2022-08-23T08:34:42;11.48;;;2.78;;
62580;SDS011;48640;48.770;9.148;2022-08-23T08:37:09;5.82;;;2.05;;
62580;SDS011;48640;48.770;9.148;2022-08-23T08:39:35;8.52;;;2.42;;
62580;SDS011;48640;48.770;9.148;2022-08-23T08:42:14;6.97;;;2.33;;
62580;SDS011;48640;48.770;9.148;2022-08-23T08:44:53;4.40;;;2.00;;
62580;SDS011;48640;48.770;9.148;2022-08-23T08:47:24;5.40;;;3.03;;
62580;SDS011;48640;48.770;9.148;2022-08-23T08:49:59;10.15;;;3.13;;
62580;SDS011;48640;48.770;9.148;2022-08-23T08:52:31;3.75;;;1.73;;
62580;SDS011;48640;48.770;9.148;2022-08-23T08:55:02;4.25;;;2.03;;
62580;SDS011;48640;48.770;9.148;2022-08-23T08:57:34;3.72;;;1.85;;
62580;SDS011;48640;48.770;9.148;2022-08-23T09:00:06;4.18;;;2.03;;
62580;SDS011;48640;48.770;9.148;2022-08-23T09:02:36;2.85;;;1.60;;
62580;SDS011;48640;48.770;9.148;2022-08-23T09:05:06;6.00;;;1.77;;
62580;SDS011;48640;48.770;9.148;2022-08-23T09:07:38;5.18;;;1.83;;
62580;SDS011;48640;48.770;9.148;2022-08-23T09:13:34;2.92;;;1.92;;
62580;SDS011;48640;48.770;9.148;2022-08-23T09:16:21;6.13;;;2.03;;
62580;SDS011;48640;48.770;9.148;2022-08-23T09:18:57;4.70;;;2.08;;
62580;SDS011;48640;48.770;9.148;2022-08-23T09:21:26;8.90;;;2.35;;
62580;SDS011;48640;48.770;9.148;2022-08-23T09:23:54;3.85;;;1.63;;
62580;SDS011;48640;48.770;9.148;2022-08-23T09:26:22;5.47;;;1.90;;
62580;SDS011;48640;48.770;9.148;2022-08-23T09:28:50;8.27;;;2.10;;
62580;SDS011;48640;48.770;9.148;2022-08-23T09:34:02;4.15;;;1.92;;
62580;SDS011;48640;48.770;9.148;2022-08-23T09:36:30;5.15;;;2.00;;
62580;SDS011;48640;48.770;9.148;2022-08-23T09:39:00;3.42;;;1.83;;
62580;SDS011;48640;48.770;9.148;2022-08-23T09:41:30;2.60;;;1.80;;
62580;SDS011;48640;48.770;9.148;2022-08-23T09:44:01;5.13;;;1.67;;
62580;SDS011;48640;48.770;9.148;2022-08-23T09:46:30;3.13;;;1.45;;
62580;SDS011;48640;48.770;9.148;2022-08-23T09:49:06;4.22;;;1.80;;
62580;SDS011;48640;48.770;9.148;2022-08-23T09:51:48;4.03;;;1.50;;
62580;SDS011;48640;48.770;9.148;2022-08-23T09:54:17;4.68;;;1.63;;
62580;SDS011;48640;48.770;9.148;2022-08-23T09:56:49;5.40;;;1.45;;
62580;SDS011;48640;48.770;9.148;2022-08-23T09:59:33;4.90;;;1.80;;
62580;SDS011;48640;48.770;9.148;2022-08-23T10:02:03;4.35;;;1.67;;
62580;SDS011;48640;48.770;9.148;2022-08-23T10:04:40;5.00;;;1.90;;
62580;SDS011;48640;48.770;9.148;2022-08-23T10:07:26;3.95;;;1.73;;
62580;SDS011;48640;48.770;9.148;2022-08-23T10:10:15;3.30;;;1.50;;
62580;SDS011;48640;48.770;9.148;2022-08-23T10:12:48;3.70;;;1.33;;
62580;SDS011;48640;48.770;9.148;2022-08-23T10:15:16;2.72;;;1.45;;
62580;SDS011;48640;48.770;9.148;2022-08-23T10:17:47;2.10;;;1.52;;
62580;SDS011;48640;48.770;9.148;2022-08-23T10:20:28;4.88;;;1.48;;
62580;SDS011;48640;48.770;9.148;2022-08-23T10:23:03;4.40;;;1.50;;
62580;SDS011;48640;48.770;9.148;2022-08-23T10:25:44;3.92;;;1.63;;
62580;SDS011;48640;48.770;9.148;2022-08-23T10:28:14;4.13;;;1.70;;
62580;SDS011;48640;48.770;9.148;2022-08-23T10:31:10;4.05;;;1.35;;
62580;SDS011;48640;48.770;9.148;2022-08-23T10:33:45;5.68;;;2.20;;
62580;SDS011;48640;48.770;9.148;2022-08-23T10:36:22;4.18;;;1.40;;
62580;SDS011;48640;48.770;9.148;2022-08-23T10:38:58;2.35;;;1.50;;
62580;SDS011;48640;48.770;9.148;2022-08-23T10:41:44;4.95;;;1.50;;
62580;SDS011;48640;48.770;9.148;2022-08-23T10:44:22;8.15;;;1.55;;
62580;SDS011;48640;48.770;9.148;2022-08-23T10:46:56;4.20;;;1.83;;
62580;SDS011;48640;48.770;9.148;2022-08-23T10:49:36;3.33;;;1.60;;
62580;SDS011;48640;48.770;9.148;2022-08-23T10:52:07;2.25;;;1.45;;
62580;SDS011;48640;48.770;9.148;2022-08-23T10:54:36;3.10;;;1.20;;
62580;SDS011;48640;48.770;9.148;2022-08-23T10:57:13;5.18;;;1.75;;
62580;SDS011;48640;48.770;9.148;2022-08-23T10:59:44;3.08;;;1.40;;
62580;SDS011;48640;48.770;9.148;2022-08-23T11:02:16;3.65;;;1.45;;
62580;SDS011;48640;48.770;9.148;2022-08-23T11:04:50;3.00;;;1.35;;
62580;SDS011;48640;48.770;9.148;2022-08-23T11:07:26;4.13;;;1.33;;
62580;SDS011;48640;48.770;9.148;2022-08-23T11:09:55;3.53;;;2.30;;
62580;SDS011;48640;48.770;9.148;2022-08-23T11:12:33;4.13;;;1.27;;
62580;SDS011;48640;48.770;9.148;2022-08-23T11:15:36;3.00;;;1.60;;
62580;SDS011;48640;48.770;9.148;2022-08-23T11:18:07;2.67;;;1.45;;
62580;SDS011;48640;48.770;9.148;2022-08-23T11:23:39;3.00;;;1.40;;
62580;SDS011;48640;48.770;9.148;2022-08-23T11:28:54;2.33;;;1.45;;
62580;SDS011;48640;48.770;9.148;2022-08-23T11:31:44;6.10;;;1.80;;
62580;SDS011;48640;48.770;9.148;2022-08-23T11:34:18;2.47;;;1.40;;
62580;SDS011;48640;48.770;9.148;2022-08-23T11:40:04;2.20;;;1.23;;
62580;SDS011;48640;48.770;9.148;2022-08-23T11:42:48;2.85;;;1.30;;
62580;SDS011;48640;48.770;9.148;2022-08-23T11:45:20;3.28;;;1.13;;
62580;SDS011;48640;48.770;9.148;2022-08-23T11:48:03;3.42;;;1.45;;
62580;SDS011;48640;48.770;9.148;2022-08-23T11:50:38;2.72;;;1.50;;
62580;SDS011;48640;48.770;9.148;2022-08-23T11:53:17;2.80;;;1.30;;
62580;SDS011;48640;48.770;9.148;2022-08-23T11:56:15;7.72;;;1.58;;
62580;SDS011;48640;48.770;9.148;2022-08-23T11:59:11;1.98;;;1.17;;
62580;SDS011;48640;48.770;9.148;2022-08-23T12:01:46;5.75;;;1.90;;
62580;SDS011;48640;48.770;9.148;2022-08-23T12:04:30;4.53;;;1.67;;
62580;SDS011;48640;48.770;9.148;2022-08-23T12:07:00;3.67;;;1.70;;
62580;SDS011;48640;48.770;9.148;2022-08-23T12:12:26;3.97;;;1.70;;
62580;SDS011;48640;48.770;9.148;2022-08-23T12:14:56;3.03;;;1.40;;
62580;SDS011;48640;48.770;9.148;2022-08-23T12:20:13;4.57;;;2.10;;
62580;SDS011;48640;48.770;9.148;2022-08-23T12:22:52;2.90;;;1.40;;
62580;SDS011;48640;48.770;9.148;2022-08-23T12:25:32;4.78;;;1.65;;
62580;SDS011;48640;48.770;9.148;2022-08-23T12:28:01;3.05;;;1.50;;
62580;SDS011;48640;48.770;9.148;2022-08-23T12:30:34;3.60;;;1.55;;
62580;SDS011;48640;48.770;9.148;2022-08-23T12:33:08;4.18;;;1.80;;
62580;SDS011;48640;48.770;9.148;2022-08-23T12:35:47;2.55;;;1.38;;
62580;SDS011;48640;48.770;9.148;2022-08-23T12:38:20;2.78;;;1.48;;
62580;SDS011;48640;48.770;9.148;2022-08-23T12:40:57;6.07;;;1.60;;
62580;SDS011;48640;48.770;9.148;2022-08-23T12:43:36;3.13;;;1.50;;
62580;SDS011;48640;48.770;9.148;2022-08-23T12:46:03;3.25;;;1.98;;
62580;SDS011;48640;48.770;9.148;2022-08-23T12:48:31;4.65;;;1.77;;
62580;SDS011;48640;48.770;9.148;2022-08-23T12:51:11;3.55;;;1.48;;
62580;SDS011;48640;48.770;9.148;2022-08-23T12:53:39;2.42;;;1.60;;
62580;SDS011;48640;48.770;9.148;2022-08-23T12:56:08;3.75;;;1.60;;
62580;SDS011;48640;48.770;9.148;2022-08-23T12:58:43;3.10;;;1.65;;
62580;SDS011;48640;48.770;9.148;2022-08-23T13:01:16;4.30;;;1.67;;
62580;SDS011;48640;48.770;9.148;2022-08-23T13:03:46;6.57;;;2.35;;
62580;SDS011;48640;48.770;9.148;2022-08-23T13:06:19;3.60;;;1.88;;
62580;SDS011;48640;48.770;9.148;2022-08-23T13:08:51;4.28;;;2.00;;
62580;SDS011;48640;48.770;9.148;2022-08-23T13:11:22;3.42;;;1.45;;
62580;SDS011;48640;48.770;9.148;2022-08-23T13:13:52;4.07;;;1.52;;
62580;SDS011;48640;48.770;9.148;2022-08-23T13:16:23;2.97;;;1.52;;
62580;SDS011;48640;48.770;9.148;2022-08-23T13:19:13;4.82;;;1.67;;
62580;SDS011;48640;48.770;9.148;2022-08-23T13:21:43;4.50;;;1.48;;
62580;SDS011;48640;48.770;9.148;2022-08-23T13:27:10;3.15;;;1.90;;
62580;SDS011;48640;48.770;9.148;2022-08-23T13:29:49;3.88;;;1.90;;
62580;SDS011;48640;48.770;9.148;2022-08-23T13:32:28;4.50;;;1.50;;
62580;SDS011;48640;48.770;9.148;2022-08-23T13:37:49;3.78;;;1.70;;
62580;SDS011;48640;48.770;9.148;2022-08-23T13:40:20;4.05;;;1.80;;
62580;SDS011;48640;48.770;9.148;2022-08-23T13:42:50;3.05;;;1.48;;
62580;SDS011;48640;48.770;9.148;2022-08-23T13:45:22;3.47;;;1.77;;
62580;SDS011;48640;48.770;9.148;2022-08-23T13:47:54;3.03;;;1.50;;
62580;SDS011;48640;48.770;9.148;2022-08-23T13:50:24;4.38;;;1.88;;
62580;SDS011;48640;48.770;9.148;2022-08-23T13:52:54;3.75;;;1.70;;
62580;SDS011;48640;48.770;9.148;2022-08-23T13:55:22;4.18;;;1.65;;
62580;SDS011;48640;48.770;9.148;2022-08-23T13:57:50;6.90;;;1.95;;
62580;SDS011;48640;48.770;9.148;2022-08-23T14:00:17;3.90;;;1.63;;
62580;SDS011;48640;48.770;9.148;2022-08-23T14:02:45;4.70;;;1.60;;
62580;SDS011;48640;48.770;9.148;2022-08-23T14:05:13;4.10;;;1.73;;
62580;SDS011;48640;48.770;9.148;2022-08-23T14:07:42;3.55;;;1.73;;
62580;SDS011;48640;48.770;9.148;2022-08-23T14:10:11;3.30;;;1.83;;
62580;SDS011;48640;48.770;9.148;2022-08-23T14:12:39;5.03;;;1.77;;
62580;SDS011;48640;48.770;9.148;2022-08-23T14:15:08;3.42;;;1.63;;
62580;SDS011;48640;48.770;9.148;2022-08-23T14:17:37;3.33;;;1.40;;
62580;SDS011;48640;48.770;9.148;2022-08-23T14:20:07;3.47;;;1.58;;
62580;SDS011;48640;48.770;9.148;2022-08-23T14:22:36;7.70;;;2.00;;
62580;SDS011;48640;48.770;9.148;2022-08-23T14:25:04;3.75;;;1.67;;
62580;SDS011;48640;48.770;9.148;2022-08-23T14:27:33;5.30;;;1.50;;
62580;SDS011;48640;48.770;9.148;2022-08-23T14:30:00;2.20;;;1.48;;
62580;SDS011;48640;48.770;9.148;2022-08-23T14:34:56;4.20;;;2.28;;
62580;SDS011;48640;48.770;9.148;2022-08-23T14:37:23;7.28;;;1.42;;
62580;SDS011;48640;48.770;9.148;2022-08-23T14:39:50;5.07;;;1.73;;
62580;SDS011;48640;48.770;9.148;2022-08-23T14:42:18;3.20;;;1.38;;
62580;SDS011;48640;48.770;9.148;2022-08-23T14:44:48;3.17;;;1.55;;
62580;SDS011;48640;48.770;9.148;2022-08-23T14:47:15;2.28;;;1.60;;
62580;SDS011;48640;48.770;9.148;2022-08-23T14:49:42;2.58;;;1.60;;
62580;SDS011;48640;48.770;9.148;2022-08-23T14:52:09;2.67;;;1.35;;
62580;SDS011;48640;48.770;9.148;2022-08-23T14:54:38;4.55;;;2.58;;
62580;SDS011;48640;48.770;9.148;2022-08-23T14:57:05;3.50;;;1.65;;
62580;SDS011;48640;48.770;9.148;2022-08-23T14:59:32;2.63;;;1.50;;
62580;SDS011;48640;48.770;9.148;2022-08-23T15:02:00;3.33;;;1.70;;
62580;SDS011;48640;48.770;9.148;2022-08-23T15:06:55;2.50;;;1.65;;
62580;SDS011;48640;48.770;9.148;2022-08-23T15:09:22;3.83;;;2.30;;
62580;SDS011;48640;48.770;9.148;2022-08-23T15:11:49;3.08;;;1.73;;
62580;SDS011;48640;48.770;9.148;2022-08-23T15:14:16;5.15;;;1.90;;
62580;SDS011;48640;48.770;9.148;2022-08-23T15:16:43;3.55;;;1.95;;
62580;SDS011;48640;48.770;9.148;2022-08-23T15:19:12;3.63;;;1.85;;
62580;SDS011;48640;48.770;9.148;2022-08-23T15:21:39;4.40;;;1.80;;
62580;SDS011;48640;48.770;9.148;2022-08-23T15:24:06;2.70;;;1.73;;
62580;SDS011;48640;48.770;9.148;2022-08-23T15:26:33;3.78;;;1.52;;
62580;SDS011;48640;48.770;9.148;2022-08-23T15:29:00;2.45;;;1.30;;
62580;SDS011;48640;48.770;9.148;2022-08-23T15:31:27;2.78;;;1.40;;
62580;SDS011;48640;48.770;9.148;2022-08-23T15:33:54;2.30;;;1.55;;
62580;SDS011;48640;48.770;9.148;2022-08-23T15:36:23;3.28;;;1.52;;
62580;SDS011;48640;48.770;9.148;2022-08-23T15:38:50;5.30;;;1.80;;
62580;SDS011;48640;48.770;9.148;2022-08-23T15:41:17;3.92;;;2.10;;